createdAt,value
2018-06-15T20:28:06.288Z,47.8
2018-06-15T20:29:10.969Z,48.1
2018-06-15T20:30:15.212Z,48.8
2018-06-15T20:31:20.188Z,49.6
2018-06-15T20:32:24.422Z,50
2018-06-15T20:32:59.397Z,49.6
2018-06-15T20:33:27.202Z,49.5
2018-06-15T20:34:32.725Z,49.7
2018-06-15T20:36:06.684Z,50
2018-06-15T20:37:12.220Z,50.4
2018-06-15T20:38:16.968Z,50.5
2018-06-15T20:39:21.215Z,50.8
2018-06-15T20:40:25.459Z,50.7
2018-06-15T20:41:34.493Z,50.7
2018-06-15T20:42:40.124Z,50.6
2018-06-15T20:43:45.671Z,50.8
2018-06-15T20:44:53.264Z,51.4
2018-06-15T20:45:58.831Z,52
2018-06-15T22:16:38.546Z,49.7
2018-06-15T22:17:42.852Z,50.2
2018-06-15T22:18:47.226Z,49.8
2018-06-15T22:19:51.475Z,49.7
2018-06-15T22:20:55.717Z,49.7
2018-06-15T22:21:59.954Z,49.6
2018-06-15T22:23:04.380Z,49.5
2018-06-15T22:24:08.831Z,49.6
2018-06-15T22:25:13.100Z,49.7
2018-06-15T22:26:17.343Z,49.8
2018-06-15T22:27:21.616Z,49.8
2018-06-15T22:28:26.025Z,49.9
2018-06-15T22:28:46.488Z,49.5
2018-06-15T22:29:50.748Z,50
2018-06-15T22:30:55.014Z,50
2018-06-15T22:31:59.319Z,50.1
2018-06-15T22:33:03.579Z,50.2
2018-06-15T22:34:20.223Z,49.5
2018-06-15T22:35:26.024Z,50
2018-06-15T22:36:31.596Z,50.3
2018-06-15T22:37:35.836Z,50.3
2018-06-15T22:38:40.108Z,50.4
2018-06-15T22:41:12.252Z,52.1
2018-06-15T22:42:17.778Z,50.8
2018-06-15T22:43:23.417Z,51.2
2018-06-15T22:45:05.173Z,50.3
2018-06-15T22:46:11.228Z,50.1
2018-06-15T22:47:23.952Z,49.6
2018-06-15T22:48:29.128Z,50.2
2018-06-15T22:49:05.945Z,49.4
2018-06-15T22:50:13.606Z,50
2018-06-15T22:51:51.974Z,49.4
2018-06-15T23:33:25.145Z,52.6
2018-06-15T23:34:29.450Z,53.1
2018-06-15T23:35:33.725Z,53.9
2018-06-15T23:36:37.967Z,53.5
2018-06-15T23:37:42.214Z,53.5
2018-06-15T23:38:48.464Z,53.4
2018-06-15T23:39:52.743Z,53.1
2018-06-15T23:40:56.991Z,53.1
2018-06-15T23:42:01.247Z,52.9
2018-06-15T23:43:05.541Z,52.7
2018-06-15T23:44:09.849Z,52.6
2018-06-15T23:45:14.263Z,52.5
2018-06-15T23:46:18.507Z,52.4
2018-06-15T23:47:22.751Z,52.1
2018-06-15T23:48:26.996Z,51.9
2018-06-15T23:49:31.283Z,51.8
2018-06-15T23:50:36.140Z,51.8
2018-06-15T23:51:40.420Z,52.3
2018-06-15T23:52:44.760Z,51.4
2018-06-15T23:53:49.034Z,51.1
2018-06-15T23:54:53.335Z,51
2018-06-15T23:55:57.627Z,50.8
2018-06-15T23:57:01.877Z,50.8
2018-06-15T23:58:06.126Z,50.5
2018-06-15T23:59:10.375Z,50.5
